sensor_id;sensor_type;location;lat;lon;timestamp;P1;durP1;ratioP1;P2;durP2;ratioP2
14732;SDS011;7457;50.960;6.830;2024-01-10T00:01:17;10.95;;;8.00;;
14732;SDS011;7457;50.960;6.830;2024-01-10T00:03:44;9.55;;;7.75;;
14732;SDS011;7457;50.960;6.830;2024-01-10T00:06:10;10.85;;;7.68;;
14732;SDS011;7457;50.960;6.830;2024-01-10T00:08:36;11.05;;;7.70;;
14732;SDS011;7457;50.960;6.830;2024-01-10T00:11:02;10.68;;;7.55;;
14732;SDS011;7457;50.960;6.830;2024-01-10T00:13:28;9.35;;;7.18;;
14732;SDS011;7457;50.960;6.830;2024-01-10T00:15:56;13.98;;;8.07;;
14732;SDS011;7457;50.960;6.830;2024-01-10T00:18:23;12.07;;;8.07;;
14732;SDS011;7457;50.960;6.830;2024-01-10T00:20:49;10.93;;;7.40;;
14732;SDS011;7457;50.960;6.830;2024-01-10T00:23:18;10.82;;;8.48;;
14732;SDS011;7457;50.960;6.830;2024-01-10T00:25:44;11.07;;;8.93;;
14732;SDS011;7457;50.960;6.830;2024-01-10T00:28:10;12.70;;;8.82;;
14732;SDS011;7457;50.960;6.830;2024-01-10T00:30:37;14.27;;;8.93;;
14732;SDS011;7457;50.960;6.830;2024-01-10T00:33:03;11.07;;;7.60;;
14732;SDS011;7457;50.960;6.830;2024-01-10T00:35:29;12.70;;;7.70;;
14732;SDS011;7457;50.960;6.830;2024-01-10T00:37:55;11.07;;;7.35;;
14732;SDS011;7457;50.960;6.830;2024-01-10T00:40:21;8.93;;;7.50;;
14732;SDS011;7457;50.960;6.830;2024-01-10T00:42:47;9.95;;;7.18;;
14732;SDS011;7457;50.960;6.830;2024-01-10T00:45:12;11.63;;;8.73;;
14732;SDS011;7457;50.960;6.830;2024-01-10T00:47:38;10.90;;;8.20;;
14732;SDS011;7457;50.960;6.830;2024-01-10T00:50:04;9.90;;;7.45;;
14732;SDS011;7457;50.960;6.830;2024-01-10T00:52:30;11.30;;;7.85;;
14732;SDS011;7457;50.960;6.830;2024-01-10T00:54:56;11.13;;;7.03;;
14732;SDS011;7457;50.960;6.830;2024-01-10T00:57:21;12.75;;;7.88;;
14732;SDS011;7457;50.960;6.830;2024-01-10T00:59:47;12.38;;;7.50;;
14732;SDS011;7457;50.960;6.830;2024-01-10T01:02:13;9.90;;;7.10;;
14732;SDS011;7457;50.960;6.830;2024-01-10T01:04:38;11.50;;;8.60;;
14732;SDS011;7457;50.960;6.830;2024-01-10T01:07:04;14.48;;;7.95;;
14732;SDS011;7457;50.960;6.830;2024-01-10T01:09:29;12.40;;;8.63;;
14732;SDS011;7457;50.960;6.830;2024-01-10T01:11:55;15.23;;;8.35;;
14732;SDS011;7457;50.960;6.830;2024-01-10T01:14:21;16.08;;;9.88;;
14732;SDS011;7457;50.960;6.830;2024-01-10T01:16:46;19.20;;;9.05;;
14732;SDS011;7457;50.960;6.830;2024-01-10T01:19:12;14.50;;;9.10;;
14732;SDS011;7457;50.960;6.830;2024-01-10T01:21:37;13.52;;;8.27;;
14732;SDS011;7457;50.960;6.830;2024-01-10T01:24:03;11.32;;;7.57;;
14732;SDS011;7457;50.960;6.830;2024-01-10T01:26:29;11.23;;;8.25;;
14732;SDS011;7457;50.960;6.830;2024-01-10T01:28:54;10.65;;;7.90;;
14732;SDS011;7457;50.960;6.830;2024-01-10T01:31:20;11.30;;;7.32;;
14732;SDS011;7457;50.960;6.830;2024-01-10T01:33:45;12.35;;;8.73;;
14732;SDS011;7457;50.960;6.830;2024-01-10T01:36:11;12.27;;;7.95;;
14732;SDS011;7457;50.960;6.830;2024-01-10T01:38:37;11.07;;;8.18;;
14732;SDS011;7457;50.960;6.830;2024-01-10T01:41:02;13.43;;;8.15;;
14732;SDS011;7457;50.960;6.830;2024-01-10T01:43:28;10.55;;;7.80;;
14732;SDS011;7457;50.960;6.830;2024-01-10T01:45:54;12.80;;;8.18;;
14732;SDS011;7457;50.960;6.830;2024-01-10T01:48:22;12.10;;;8.23;;
14732;SDS011;7457;50.960;6.830;2024-01-10T01:50:50;12.70;;;8.90;;
14732;SDS011;7457;50.960;6.830;2024-01-10T01:53:19;12.82;;;8.68;;
14732;SDS011;7457;50.960;6.830;2024-01-10T01:55:45;11.23;;;7.95;;
14732;SDS011;7457;50.960;6.830;2024-01-10T01:58:12;10.57;;;7.57;;
14732;SDS011;7457;50.960;6.830;2024-01-10T02:00:38;11.40;;;7.75;;
14732;SDS011;7457;50.960;6.830;2024-01-10T02:03:04;10.80;;;7.97;;
14732;SDS011;7457;50.960;6.830;2024-01-10T02:05:31;11.10;;;8.07;;
14732;SDS011;7457;50.960;6.830;2024-01-10T02:07:57;8.90;;;7.18;;
14732;SDS011;7457;50.960;6.830;2024-01-10T02:10:23;13.07;;;7.93;;
14732;SDS011;7457;50.960;6.830;2024-01-10T02:12:49;9.88;;;8.55;;
14732;SDS011;7457;50.960;6.830;2024-01-10T02:15:14;10.52;;;7.95;;
14732;SDS011;7457;50.960;6.830;2024-01-10T02:17:41;10.90;;;7.90;;
14732;SDS011;7457;50.960;6.830;2024-01-10T02:20:08;9.93;;;7.55;;
14732;SDS011;7457;50.960;6.830;2024-01-10T02:22:34;9.18;;;7.80;;
14732;SDS011;7457;50.960;6.830;2024-01-10T02:25:00;9.77;;;7.60;;
14732;SDS011;7457;50.960;6.830;2024-01-10T02:27:26;14.32;;;8.38;;
14732;SDS011;7457;50.960;6.830;2024-01-10T02:29:52;9.18;;;7.03;;
14732;SDS011;7457;50.960;6.830;2024-01-10T02:32:19;12.43;;;7.95;;
14732;SDS011;7457;50.960;6.830;2024-01-10T02:34:45;10.98;;;7.53;;
14732;SDS011;7457;50.960;6.830;2024-01-10T02:37:10;10.77;;;8.05;;
14732;SDS011;7457;50.960;6.830;2024-01-10T02:39:36;9.85;;;7.75;;
14732;SDS011;7457;50.960;6.830;2024-01-10T02:42:01;9.73;;;7.47;;
14732;SDS011;7457;50.960;6.830;2024-01-10T02:44:27;10.25;;;7.80;;
14732;SDS011;7457;50.960;6.830;2024-01-10T02:46:53;9.45;;;6.68;;
14732;SDS011;7457;50.960;6.830;2024-01-10T02:49:18;11.45;;;7.60;;
14732;SDS011;7457;50.960;6.830;2024-01-10T02:51:44;13.43;;;7.05;;
14732;SDS011;7457;50.960;6.830;2024-01-10T02:54:10;10.27;;;7.50;;
14732;SDS011;7457;50.960;6.830;2024-01-10T02:56:36;15.07;;;8.73;;
14732;SDS011;7457;50.960;6.830;2024-01-10T02:59:01;11.27;;;8.48;;
14732;SDS011;7457;50.960;6.830;2024-01-10T03:01:27;13.75;;;8.18;;
14732;SDS011;7457;50.960;6.830;2024-01-10T03:03:53;14.48;;;9.63;;
14732;SDS011;7457;50.960;6.830;2024-01-10T03:06:19;12.80;;;8.18;;
14732;SDS011;7457;50.960;6.830;2024-01-10T03:08:44;10.38;;;7.30;;
14732;SDS011;7457;50.960;6.830;2024-01-10T03:11:10;12.30;;;8.27;;
14732;SDS011;7457;50.960;6.830;2024-01-10T03:13:36;10.68;;;8.10;;
14732;SDS011;7457;50.960;6.830;2024-01-10T03:16:02;13.70;;;8.05;;
14732;SDS011;7457;50.960;6.830;2024-01-10T03:18:28;13.27;;;8.27;;
14732;SDS011;7457;50.960;6.830;2024-01-10T03:20:54;10.65;;;7.18;;
14732;SDS011;7457;50.960;6.830;2024-01-10T03:23:20;12.07;;;7.80;;
14732;SDS011;7457;50.960;6.830;2024-01-10T03:25:47;11.07;;;8.00;;
14732;SDS011;7457;50.960;6.830;2024-01-10T03:28:16;11.35;;;8.63;;
14732;SDS011;7457;50.960;6.830;2024-01-10T03:30:44;11.27;;;7.75;;
14732;SDS011;7457;50.960;6.830;2024-01-10T03:33:10;12.40;;;8.63;;
14732;SDS011;7457;50.960;6.830;2024-01-10T03:35:36;10.02;;;7.50;;
14732;SDS011;7457;50.960;6.830;2024-01-10T03:38:02;13.30;;;8.93;;
14732;SDS011;7457;50.960;6.830;2024-01-10T03:40:27;12.32;;;8.73;;
14732;SDS011;7457;50.960;6.830;2024-01-10T03:42:53;13.68;;;8.90;;
14732;SDS011;7457;50.960;6.830;2024-01-10T03:45:18;12.98;;;8.63;;
14732;SDS011;7457;50.960;6.830;2024-01-10T03:47:47;11.35;;;8.40;;
14732;SDS011;7457;50.960;6.830;2024-01-10T03:50:16;10.68;;;7.90;;
14732;SDS011;7457;50.960;6.830;2024-01-10T03:52:45;9.32;;;7.95;;
14732;SDS011;7457;50.960;6.830;2024-01-10T03:55:12;10.52;;;7.72;;
14732;SDS011;7457;50.960;6.830;2024-01-10T03:57:38;11.82;;;8.85;;
14732;SDS011;7457;50.960;6.830;2024-01-10T04:00:05;9.95;;;8.27;;
14732;SDS011;7457;50.960;6.830;2024-01-10T04:02:36;10.23;;;8.00;;
14732;SDS011;7457;50.960;6.830;2024-01-10T04:05:05;10.73;;;8.18;;
14732;SDS011;7457;50.960;6.830;2024-01-10T04:07:32;11.57;;;7.70;;
14732;SDS011;7457;50.960;6.830;2024-01-10T04:09:58;9.75;;;7.55;;
14732;SDS011;7457;50.960;6.830;2024-01-10T04:12:24;12.95;;;8.25;;
14732;SDS011;7457;50.960;6.830;2024-01-10T04:14:49;13.05;;;7.63;;
14732;SDS011;7457;50.960;6.830;2024-01-10T04:17:15;9.00;;;7.43;;
14732;SDS011;7457;50.960;6.830;2024-01-10T04:19:40;13.45;;;7.93;;
14732;SDS011;7457;50.960;6.830;2024-01-10T04:22:06;10.40;;;7.60;;
14732;SDS011;7457;50.960;6.830;2024-01-10T04:24:32;11.50;;;7.97;;
14732;SDS011;7457;50.960;6.830;2024-01-10T04:26:57;12.13;;;8.00;;
14732;SDS011;7457;50.960;6.830;2024-01-10T04:29:23;11.63;;;8.32;;
14732;SDS011;7457;50.960;6.830;2024-01-10T04:31:49;9.38;;;7.43;;
14732;SDS011;7457;50.960;6.830;2024-01-10T04:34:15;10.98;;;7.82;;
14732;SDS011;7457;50.960;6.830;2024-01-10T04:36:40;14.43;;;9.38;;
14732;SDS011;7457;50.960;6.830;2024-01-10T04:39:06;14.10;;;8.07;;
14732;SDS011;7457;50.960;6.830;2024-01-10T04:41:31;9.15;;;8.20;;
14732;SDS011;7457;50.960;6.830;2024-01-10T04:43:57;11.23;;;7.55;;
14732;SDS011;7457;50.960;6.830;2024-01-10T04:46:23;12.13;;;8.48;;
14732;SDS011;7457;50.960;6.830;2024-01-10T04:48:48;9.25;;;7.57;;
14732;SDS011;7457;50.960;6.830;2024-01-10T04:51:14;10.98;;;8.27;;
14732;SDS011;7457;50.960;6.830;2024-01-10T04:53:40;12.55;;;8.52;;
14732;SDS011;7457;50.960;6.830;2024-01-10T04:56:05;11.45;;;7.95;;
14732;SDS011;7457;50.960;6.830;2024-01-10T04:58:31;11.43;;;7.72;;
14732;SDS011;7457;50.960;6.830;2024-01-10T05:00:58;10.73;;;7.15;;
14732;SDS011;7457;50.960;6.830;2024-01-10T05:03:23;12.27;;;8.23;;
14732;SDS011;7457;50.960;6.830;2024-01-10T05:05:49;13.07;;;8.88;;
14732;SDS011;7457;50.960;6.830;2024-01-10T05:08:15;16.90;;;9.15;;
14732;SDS011;7457;50.960;6.830;2024-01-10T05:10:40;12.35;;;8.15;;
14732;SDS011;7457;50.960;6.830;2024-01-10T05:13:06;12.65;;;8.43;;
14732;SDS011;7457;50.960;6.830;2024-01-10T05:15:32;10.60;;;8.25;;
14732;SDS011;7457;50.960;6.830;2024-01-10T05:17:57;12.27;;;7.78;;
14732;SDS011;7457;50.960;6.830;2024-01-10T05:20:23;12.10;;;8.40;;
14732;SDS011;7457;50.960;6.830;2024-01-10T05:22:48;13.15;;;8.18;;
14732;SDS011;7457;50.960;6.830;2024-01-10T05:25:14;13.30;;;8.52;;
14732;SDS011;7457;50.960;6.830;2024-01-10T05:27:43;12.23;;;8.57;;
14732;SDS011;7457;50.960;6.830;2024-01-10T05:30:09;9.80;;;8.13;;
14732;SDS011;7457;50.960;6.830;2024-01-10T05:32:37;12.23;;;8.40;;
14732;SDS011;7457;50.960;6.830;2024-01-10T05:35:03;11.65;;;9.05;;
14732;SDS011;7457;50.960;6.830;2024-01-10T05:37:30;12.48;;;8.77;;
14732;SDS011;7457;50.960;6.830;2024-01-10T05:39:55;11.40;;;8.32;;
14732;SDS011;7457;50.960;6.830;2024-01-10T05:42:21;14.43;;;8.35;;
14732;SDS011;7457;50.960;6.830;2024-01-10T05:44:47;12.30;;;7.88;;
14732;SDS011;7457;50.960;6.830;2024-01-10T05:47:12;13.55;;;8.10;;
14732;SDS011;7457;50.960;6.830;2024-01-10T05:49:38;13.13;;;8.65;;
14732;SDS011;7457;50.960;6.830;2024-01-10T05:52:04;9.30;;;8.02;;
14732;SDS011;7457;50.960;6.830;2024-01-10T05:54:30;14.23;;;8.05;;
14732;SDS011;7457;50.960;6.830;2024-01-10T05:56:55;32.00;;;16.27;;
14732;SDS011;7457;50.960;6.830;2024-01-10T05:59:21;60.38;;;26.10;;
14732;SDS011;7457;50.960;6.830;2024-01-10T06:01:46;41.75;;;19.20;;
14732;SDS011;7457;50.960;6.830;2024-01-10T06:04:12;35.33;;;19.40;;
14732;SDS011;7457;50.960;6.830;2024-01-10T06:06:38;44.70;;;20.35;;
14732;SDS011;7457;50.960;6.830;2024-01-10T06:09:03;30.70;;;16.48;;
14732;SDS011;7457;50.960;6.830;2024-01-10T06:11:29;26.20;;;13.88;;
14732;SDS011;7457;50.960;6.830;2024-01-10T06:13:55;21.33;;;12.18;;
14732;SDS011;7457;50.960;6.830;2024-01-10T06:16:22;25.35;;;14.82;;
14732;SDS011;7457;50.960;6.830;2024-01-10T06:18:48;26.02;;;14.68;;
14732;SDS011;7457;50.960;6.830;2024-01-10T06:21:13;21.90;;;13.80;;
14732;SDS011;7457;50.960;6.830;2024-01-10T06:23:39;44.65;;;26.98;;
14732;SDS011;7457;50.960;6.830;2024-01-10T06:26:05;24.00;;;16.10;;
14732;SDS011;7457;50.960;6.830;2024-01-10T06:28:31;16.42;;;10.00;;
14732;SDS011;7457;50.960;6.830;2024-01-10T06:30:57;15.07;;;10.35;;
14732;SDS011;7457;50.960;6.830;2024-01-10T06:33:22;19.27;;;10.18;;
14732;SDS011;7457;50.960;6.830;2024-01-10T06:35:49;14.07;;;9.68;;
14732;SDS011;7457;50.960;6.830;2024-01-10T06:38:15;14.88;;;8.88;;
14732;SDS011;7457;50.960;6.830;2024-01-10T06:40:41;12.93;;;8.38;;
14732;SDS011;7457;50.960;6.830;2024-01-10T06:43:09;14.13;;;9.07;;
14732;SDS011;7457;50.960;6.830;2024-01-10T06:45:35;15.52;;;9.52;;
14732;SDS011;7457;50.960;6.830;2024-01-10T06:48:00;19.05;;;14.73;;
14732;SDS011;7457;50.960;6.830;2024-01-10T06:50:26;19.50;;;13.52;;
14732;SDS011;7457;50.960;6.830;2024-01-10T06:52:52;20.70;;;13.40;;
14732;SDS011;7457;50.960;6.830;2024-01-10T06:55:17;17.48;;;12.05;;
14732;SDS011;7457;50.960;6.830;2024-01-10T06:57:43;16.02;;;10.05;;
14732;SDS011;7457;50.960;6.830;2024-01-10T07:00:09;14.00;;;9.50;;
14732;SDS011;7457;50.960;6.830;2024-01-10T07:02:36;11.18;;;7.90;;
14732;SDS011;7457;50.960;6.830;2024-01-10T07:05:02;13.00;;;7.78;;
14732;SDS011;7457;50.960;6.830;2024-01-10T07:07:32;11.23;;;8.55;;
14732;SDS011;7457;50.960;6.830;2024-01-10T07:10:00;14.38;;;8.45;;
14732;SDS011;7457;50.960;6.830;2024-01-10T07:12:26;13.88;;;8.48;;
14732;SDS011;7457;50.960;6.830;2024-01-10T07:14:51;13.07;;;8.10;;
14732;SDS011;7457;50.960;6.830;2024-01-10T07:17:17;15.35;;;8.88;;
14732;SDS011;7457;50.960;6.830;2024-01-10T07:19:43;10.18;;;8.50;;
14732;SDS011;7457;50.960;6.830;2024-01-10T07:22:08;15.88;;;8.57;;
14732;SDS011;7457;50.960;6.830;2024-01-10T07:24:35;11.40;;;8.85;;
14732;SDS011;7457;50.960;6.830;2024-01-10T07:27:00;14.05;;;8.60;;
14732;SDS011;7457;50.960;6.830;2024-01-10T07:29:26;18.80;;;9.32;;
14732;SDS011;7457;50.960;6.830;2024-01-10T07:31:52;11.50;;;8.68;;
14732;SDS011;7457;50.960;6.830;2024-01-10T07:34:17;11.27;;;9.10;;
14732;SDS011;7457;50.960;6.830;2024-01-10T07:36:43;14.20;;;9.02;;
14732;SDS011;7457;50.960;6.830;2024-01-10T07:39:09;11.70;;;8.45;;
14732;SDS011;7457;50.960;6.830;2024-01-10T07:41:35;12.43;;;8.90;;
14732;SDS011;7457;50.960;6.830;2024-01-10T07:44:00;11.13;;;8.55;;
14732;SDS011;7457;50.960;6.830;2024-01-10T07:46:26;10.75;;;8.05;;
14732;SDS011;7457;50.960;6.830;2024-01-10T07:48:54;11.30;;;8.27;;
14732;SDS011;7457;50.960;6.830;2024-01-10T07:51:20;14.07;;;8.45;;
14732;SDS011;7457;50.960;6.830;2024-01-10T07:53:46;14.02;;;8.60;;
14732;SDS011;7457;50.960;6.830;2024-01-10T07:56:13;10.25;;;7.28;;
14732;SDS011;7457;50.960;6.830;2024-01-10T07:58:39;11.77;;;8.32;;
14732;SDS011;7457;50.960;6.830;2024-01-10T08:01:04;15.18;;;8.50;;
14732;SDS011;7457;50.960;6.830;2024-01-10T08:03:30;13.30;;;8.32;;
14732;SDS011;7457;50.960;6.830;2024-01-10T08:05:57;14.63;;;8.95;;
14732;SDS011;7457;50.960;6.830;2024-01-10T08:08:22;12.43;;;8.88;;
14732;SDS011;7457;50.960;6.830;2024-01-10T08:10:48;13.50;;;9.00;;
14732;SDS011;7457;50.960;6.830;2024-01-10T08:13:13;15.15;;;8.98;;
14732;SDS011;7457;50.960;6.830;2024-01-10T08:15:39;14.18;;;8.88;;
14732;SDS011;7457;50.960;6.830;2024-01-10T08:18:05;11.80;;;9.38;;
14732;SDS011;7457;50.960;6.830;2024-01-10T08:20:32;14.90;;;8.73;;
14732;SDS011;7457;50.960;6.830;2024-01-10T08:22:58;12.07;;;8.10;;
14732;SDS011;7457;50.960;6.830;2024-01-10T08:25:23;9.90;;;8.25;;
14732;SDS011;7457;50.960;6.830;2024-01-10T08:27:49;15.77;;;9.60;;
14732;SDS011;7457;50.960;6.830;2024-01-10T08:30:17;15.15;;;9.52;;
14732;SDS011;7457;50.960;6.830;2024-01-10T08:32:42;18.40;;;11.05;;
14732;SDS011;7457;50.960;6.830;2024-01-10T08:35:08;24.67;;;14.25;;
14732;SDS011;7457;50.960;6.830;2024-01-10T08:37:34;37.03;;;21.08;;
14732;SDS011;7457;50.960;6.830;2024-01-10T08:40:00;27.23;;;16.27;;
14732;SDS011;7457;50.960;6.830;2024-01-10T08:42:27;25.13;;;15.93;;
14732;SDS011;7457;50.960;6.830;2024-01-10T08:44:53;23.40;;;14.27;;
14732;SDS011;7457;50.960;6.830;2024-01-10T08:47:18;17.92;;;12.55;;
14732;SDS011;7457;50.960;6.830;2024-01-10T08:49:45;21.13;;;12.23;;
14732;SDS011;7457;50.960;6.830;2024-01-10T08:52:10;18.27;;;11.55;;
14732;SDS011;7457;50.960;6.830;2024-01-10T08:54:36;18.95;;;11.13;;
14732;SDS011;7457;50.960;6.830;2024-01-10T08:57:02;19.23;;;11.50;;
14732;SDS011;7457;50.960;6.830;2024-01-10T08:59:28;16.58;;;10.77;;
14732;SDS011;7457;50.960;6.830;2024-01-10T09:01:54;17.83;;;10.90;;
14732;SDS011;7457;50.960;6.830;2024-01-10T09:04:19;18.17;;;10.68;;
14732;SDS011;7457;50.960;6.830;2024-01-10T09:06:45;20.10;;;13.00;;
14732;SDS011;7457;50.960;6.830;2024-01-10T09:09:11;20.23;;;13.82;;
14732;SDS011;7457;50.960;6.830;2024-01-10T09:11:38;22.95;;;14.05;;
14732;SDS011;7457;50.960;6.830;2024-01-10T09:14:03;19.40;;;13.48;;
14732;SDS011;7457;50.960;6.830;2024-01-10T09:16:29;17.30;;;12.38;;
14732;SDS011;7457;50.960;6.830;2024-01-10T09:18:55;18.80;;;12.60;;
14732;SDS011;7457;50.960;6.830;2024-01-10T09:21:22;15.43;;;10.70;;
14732;SDS011;7457;50.960;6.830;2024-01-10T09:23:49;17.33;;;11.52;;
14732;SDS011;7457;50.960;6.830;2024-01-10T09:26:17;14.60;;;10.43;;
14732;SDS011;7457;50.960;6.830;2024-01-10T09:28:43;17.00;;;12.05;;
14732;SDS011;7457;50.960;6.830;2024-01-10T09:31:09;11.80;;;10.23;;
14732;SDS011;7457;50.960;6.830;2024-01-10T09:33:34;16.90;;;10.65;;
14732;SDS011;7457;50.960;6.830;2024-01-10T09:36:00;18.42;;;11.00;;
14732;SDS011;7457;50.960;6.830;2024-01-10T09:38:25;14.73;;;10.00;;
14732;SDS011;7457;50.960;6.830;2024-01-10T09:40:52;16.50;;;10.40;;
14732;SDS011;7457;50.960;6.830;2024-01-10T09:43:29;17.42;;;9.80;;
14732;SDS011;7457;50.960;6.830;2024-01-10T09:45:55;14.32;;;10.85;;
14732;SDS011;7457;50.960;6.830;2024-01-10T09:48:23;14.25;;;10.55;;
14732;SDS011;7457;50.960;6.830;2024-01-10T09:50:50;18.52;;;10.88;;
14732;SDS011;7457;50.960;6.830;2024-01-10T09:53:23;16.90;;;10.82;;
14732;SDS011;7457;50.960;6.830;2024-01-10T09:55:50;16.25;;;10.50;;
14732;SDS011;7457;50.960;6.830;2024-01-10T09:58:15;16.25;;;10.73;;
14732;SDS011;7457;50.960;6.830;2024-01-10T10:00:41;17.45;;;11.82;;
14732;SDS011;7457;50.960;6.830;2024-01-10T10:03:07;15.77;;;10.68;;
14732;SDS011;7457;50.960;6.830;2024-01-10T10:05:37;20.35;;;10.55;;
14732;SDS011;7457;50.960;6.830;2024-01-10T10:08:06;20.58;;;10.73;;
14732;SDS011;7457;50.960;6.830;2024-01-10T10:10:32;19.95;;;10.52;;
14732;SDS011;7457;50.960;6.830;2024-01-10T10:12:58;17.95;;;11.75;;
14732;SDS011;7457;50.960;6.830;2024-01-10T10:15:24;17.95;;;11.07;;
14732;SDS011;7457;50.960;6.830;2024-01-10T10:17:51;15.48;;;10.68;;
14732;SDS011;7457;50.960;6.830;2024-01-10T10:20:29;16.35;;;10.85;;
14732;SDS011;7457;50.960;6.830;2024-01-10T10:25:27;14.90;;;10.27;;
14732;SDS011;7457;50.960;6.830;2024-01-10T10:28:00;13.30;;;9.77;;
14732;SDS011;7457;50.960;6.830;2024-01-10T10:30:27;14.90;;;9.82;;
14732;SDS011;7457;50.960;6.830;2024-01-10T10:32:53;15.00;;;10.18;;
14732;SDS011;7457;50.960;6.830;2024-01-10T10:35:20;15.02;;;10.90;;
14732;SDS011;7457;50.960;6.830;2024-01-10T10:37:50;15.57;;;9.57;;
14732;SDS011;7457;50.960;6.830;2024-01-10T10:40:17;16.40;;;9.82;;
14732;SDS011;7457;50.960;6.830;2024-01-10T10:42:44;14.68;;;9.85;;
14732;SDS011;7457;50.960;6.830;2024-01-10T10:45:14;14.38;;;10.02;;
14732;SDS011;7457;50.960;6.830;2024-01-10T10:47:42;14.85;;;8.98;;
14732;SDS011;7457;50.960;6.830;2024-01-10T10:50:13;18.90;;;10.20;;
14732;SDS011;7457;50.960;6.830;2024-01-10T10:52:50;12.23;;;8.98;;
14732;SDS011;7457;50.960;6.830;2024-01-10T10:55:17;14.05;;;9.57;;
14732;SDS011;7457;50.960;6.830;2024-01-10T10:57:46;15.02;;;9.60;;
14732;SDS011;7457;50.960;6.830;2024-01-10T11:00:13;18.77;;;9.88;;
14732;SDS011;7457;50.960;6.830;2024-01-10T11:02:40;14.15;;;9.10;;
14732;SDS011;7457;50.960;6.830;2024-01-10T11:05:07;13.20;;;9.50;;
14732;SDS011;7457;50.960;6.830;2024-01-10T11:07:38;15.18;;;9.93;;
14732;SDS011;7457;50.960;6.830;2024-01-10T11:10:06;15.60;;;10.45;;
14732;SDS011;7457;50.960;6.830;2024-01-10T11:18:09;14.27;;;9.80;;
14732;SDS011;7457;50.960;6.830;2024-01-10T11:25:58;18.08;;;10.20;;
14732;SDS011;7457;50.960;6.830;2024-01-10T11:28:26;18.45;;;9.68;;
14732;SDS011;7457;50.960;6.830;2024-01-10T11:30:52;15.95;;;10.05;;
14732;SDS011;7457;50.960;6.830;2024-01-10T11:33:22;15.40;;;9.80;;
14732;SDS011;7457;50.960;6.830;2024-01-10T11:46:43;15.02;;;9.77;;
14732;SDS011;7457;50.960;6.830;2024-01-10T11:49:15;17.27;;;10.60;;
14732;SDS011;7457;50.960;6.830;2024-01-10T11:51:42;19.98;;;9.75;;
14732;SDS011;7457;50.960;6.830;2024-01-10T11:54:09;15.57;;;10.35;;
14732;SDS011;7457;50.960;6.830;2024-01-10T11:56:39;16.52;;;10.32;;
14732;SDS011;7457;50.960;6.830;2024-01-10T11:59:07;17.17;;;10.65;;
14732;SDS011;7457;50.960;6.830;2024-01-10T12:01:39;16.67;;;9.93;;
14732;SDS011;7457;50.960;6.830;2024-01-10T12:04:06;15.50;;;10.38;;
14732;SDS011;7457;50.960;6.830;2024-01-10T12:06:36;13.38;;;8.75;;
14732;SDS011;7457;50.960;6.830;2024-01-10T12:09:03;16.67;;;10.02;;
14732;SDS011;7457;50.960;6.830;2024-01-10T12:11:37;16.80;;;9.95;;
14732;SDS011;7457;50.960;6.830;2024-01-10T12:14:04;15.10;;;9.98;;
14732;SDS011;7457;50.960;6.830;2024-01-10T12:16:32;14.88;;;10.57;;
14732;SDS011;7457;50.960;6.830;2024-01-10T12:18:57;17.45;;;9.95;;
14732;SDS011;7457;50.960;6.830;2024-01-10T12:21:23;16.27;;;9.80;;
14732;SDS011;7457;50.960;6.830;2024-01-10T12:23:49;18.35;;;11.55;;
14732;SDS011;7457;50.960;6.830;2024-01-10T12:26:16;16.25;;;10.02;;
14732;SDS011;7457;50.960;6.830;2024-01-10T12:28:42;16.65;;;10.38;;
14732;SDS011;7457;50.960;6.830;2024-01-10T12:31:21;17.30;;;10.90;;
14732;SDS011;7457;50.960;6.830;2024-01-10T12:33:50;17.27;;;11.43;;
14732;SDS011;7457;50.960;6.830;2024-01-10T12:36:16;15.13;;;10.82;;
14732;SDS011;7457;50.960;6.830;2024-01-10T12:38:43;16.42;;;10.07;;
14732;SDS011;7457;50.960;6.830;2024-01-10T12:41:12;16.73;;;10.95;;
14732;SDS011;7457;50.960;6.830;2024-01-10T12:43:40;16.75;;;11.07;;
14732;SDS011;7457;50.960;6.830;2024-01-10T12:46:06;16.02;;;10.07;;
14732;SDS011;7457;50.960;6.830;2024-01-10T12:48:36;16.17;;;10.25;;
14732;SDS011;7457;50.960;6.830;2024-01-10T12:51:06;15.60;;;9.90;;
14732;SDS011;7457;50.960;6.830;2024-01-10T12:53:36;16.13;;;10.65;;
14732;SDS011;7457;50.960;6.830;2024-01-10T12:56:07;17.20;;;10.45;;
14732;SDS011;7457;50.960;6.830;2024-01-10T12:58:34;14.05;;;10.32;;
14732;SDS011;7457;50.960;6.830;2024-01-10T13:01:04;16.40;;;9.10;;
14732;SDS011;7457;50.960;6.830;2024-01-10T13:03:30;17.80;;;10.55;;
14732;SDS011;7457;50.960;6.830;2024-01-10T13:05:55;16.88;;;9.63;;
14732;SDS011;7457;50.960;6.830;2024-01-10T13:08:21;21.67;;;11.25;;
14732;SDS011;7457;50.960;6.830;2024-01-10T13:10:47;16.73;;;10.30;;
14732;SDS011;7457;50.960;6.830;2024-01-10T13:13:13;17.50;;;10.68;;
14732;SDS011;7457;50.960;6.830;2024-01-10T13:15:40;15.82;;;10.55;;
14732;SDS011;7457;50.960;6.830;2024-01-10T13:18:07;19.23;;;11.52;;
14732;SDS011;7457;50.960;6.830;2024-01-10T13:20:35;17.98;;;10.63;;
14732;SDS011;7457;50.960;6.830;2024-01-10T13:23:01;16.80;;;10.45;;
14732;SDS011;7457;50.960;6.830;2024-01-10T13:25:34;19.42;;;10.32;;
14732;SDS011;7457;50.960;6.830;2024-01-10T13:28:00;15.38;;;10.10;;
14732;SDS011;7457;50.960;6.830;2024-01-10T13:30:26;19.33;;;13.15;;
14732;SDS011;7457;50.960;6.830;2024-01-10T13:32:52;14.73;;;10.45;;
14732;SDS011;7457;50.960;6.830;2024-01-10T13:35:18;17.63;;;9.90;;
14732;SDS011;7457;50.960;6.830;2024-01-10T13:37:44;16.85;;;9.75;;
14732;SDS011;7457;50.960;6.830;2024-01-10T13:40:11;22.23;;;9.55;;
14732;SDS011;7457;50.960;6.830;2024-01-10T13:42:40;16.55;;;10.45;;
14732;SDS011;7457;50.960;6.830;2024-01-10T13:45:07;14.32;;;9.68;;
14732;SDS011;7457;50.960;6.830;2024-01-10T13:47:38;16.92;;;10.07;;
14732;SDS011;7457;50.960;6.830;2024-01-10T13:50:04;14.80;;;9.98;;
14732;SDS011;7457;50.960;6.830;2024-01-10T13:52:31;17.55;;;11.35;;
14732;SDS011;7457;50.960;6.830;2024-01-10T13:54:57;19.95;;;11.50;;
14732;SDS011;7457;50.960;6.830;2024-01-10T13:57:23;19.55;;;10.48;;
14732;SDS011;7457;50.960;6.830;2024-01-10T13:59:49;16.10;;;10.32;;
14732;SDS011;7457;50.960;6.830;2024-01-10T14:02:14;14.32;;;9.75;;
14732;SDS011;7457;50.960;6.830;2024-01-10T14:04:41;16.73;;;10.40;;
14732;SDS011;7457;50.960;6.830;2024-01-10T14:07:07;19.52;;;11.20;;
14732;SDS011;7457;50.960;6.830;2024-01-10T14:09:32;16.45;;;9.45;;
14732;SDS011;7457;50.960;6.830;2024-01-10T14:11:58;16.55;;;10.52;;
14732;SDS011;7457;50.960;6.830;2024-01-10T14:14:24;17.05;;;10.50;;
14732;SDS011;7457;50.960;6.830;2024-01-10T14:16:49;15.45;;;10.00;;
14732;SDS011;7457;50.960;6.830;2024-01-10T14:19:15;15.45;;;9.85;;
14732;SDS011;7457;50.960;6.830;2024-01-10T14:21:44;18.63;;;11.30;;
14732;SDS011;7457;50.960;6.830;2024-01-10T14:24:10;17.33;;;10.90;;
14732;SDS011;7457;50.960;6.830;2024-01-10T14:26:36;20.13;;;10.88;;
14732;SDS011;7457;50.960;6.830;2024-01-10T14:29:02;16.77;;;10.18;;
14732;SDS011;7457;50.960;6.830;2024-01-10T14:31:28;16.48;;;11.00;;
14732;SDS011;7457;50.960;6.830;2024-01-10T14:33:54;17.80;;;10.82;;
14732;SDS011;7457;50.960;6.830;2024-01-10T14:36:19;20.77;;;10.65;;
14732;SDS011;7457;50.960;6.830;2024-01-10T14:38:46;18.15;;;11.73;;
14732;SDS011;7457;50.960;6.830;2024-01-10T14:41:12;16.80;;;10.40;;
14732;SDS011;7457;50.960;6.830;2024-01-10T14:43:37;17.40;;;10.35;;
14732;SDS011;7457;50.960;6.830;2024-01-10T14:46:03;16.63;;;10.40;;
14732;SDS011;7457;50.960;6.830;2024-01-10T14:48:30;15.85;;;10.07;;
14732;SDS011;7457;50.960;6.830;2024-01-10T14:50:58;16.58;;;10.23;;
14732;SDS011;7457;50.960;6.830;2024-01-10T14:53:25;14.20;;;9.60;;
14732;SDS011;7457;50.960;6.830;2024-01-10T14:55:50;13.63;;;9.55;;
14732;SDS011;7457;50.960;6.830;2024-01-10T14:58:17;15.77;;;9.57;;
14732;SDS011;7457;50.960;6.830;2024-01-10T15:00:43;15.68;;;9.55;;
14732;SDS011;7457;50.960;6.830;2024-01-10T15:03:09;15.90;;;9.55;;